Time;durP1;ratioP1;P1;durP2;ratioP2;P2;SDS_P1;SDS_P2;PMS_P1;PMS_P2;Temp;Humidity;BMP_temperature;BMP_pressure;BME280_temperature;BME280_humidity;BME280_pressure;Samples;Min_cycle;Max_cycle;Signal;HPM_P1;HPM_P2
2022/05/20 00:01:05;;;;;;;8.60;3.92;;;;;;;20.33;76.99;101426.47;5049814;28;20037;-87
2022/05/20 00:03:32;;;;;;;10.90;3.30;;;;;;;20.29;77.32;101433.31;5037732;28;20484;-87
2022/05/20 00:05:59;;;;;;;11.57;3.78;;;;;;;20.17;78.08;101432.22;5020504;28;20041;-86
2022/05/20 00:08:25;;;;;;;6.88;3.40;;;;;;;20.00;78.74;101431.75;5036001;28;20025;-86
2022/05/20 00:10:53;;;;;;;8.77;3.40;;;;;;;19.83;79.16;101425.88;5035797;28;20030;-85
2022/05/20 00:13:23;;;;;;;10.27;3.60;;;;;;;19.94;78.81;101422.63;5036690;28;20484;-87
2022/05/20 00:15:49;;;;;;;6.60;3.40;;;;;;;20.15;77.85;101428.91;5018205;28;20033;-86
2022/05/20 00:18:15;;;;;;;6.75;3.08;;;;;;;20.28;77.24;101424.41;5035615;28;20033;-87
2022/05/20 00:20:41;;;;;;;8.95;3.47;;;;;;;20.22;77.54;101429.75;5035464;28;20091;-84
2022/05/20 00:23:07;;;;;;;9.70;3.20;;;;;;;20.29;77.20;101419.84;5017681;28;20033;-85
2022/05/20 00:25:45;;;;;;;14.23;3.55;;;;;;;20.18;77.27;101428.50;5035829;28;20033;-89
2022/05/20 00:28:12;;;;;;;14.45;3.55;;;;;;;20.11;77.90;101429.31;5036073;28;20547;-90
2022/05/20 00:30:38;;;;;;;8.13;2.90;;;;;;;20.05;78.44;101423.91;5035427;28;20025;-88
2022/05/20 00:33:04;;;;;;;10.02;3.38;;;;;;;20.12;78.47;101425.56;5035283;28;20032;-87
2022/05/20 00:35:29;;;;;;;9.88;3.22;;;;;;;20.08;78.61;101424.31;5035363;28;20564;-86
2022/05/20 00:37:55;;;;;;;9.25;3.22;;;;;;;19.86;80.06;101441.63;5035448;28;20093;-87
2022/05/20 00:40:24;;;;;;;8.35;3.25;;;;;;;19.86;80.11;101438.94;5017778;28;20042;-85
2022/05/20 00:42:50;;;;;;;7.72;3.20;;;;;;;19.89;79.85;101457.34;5035038;28;20128;-87
2022/05/20 00:45:18;;;;;;;9.20;3.90;;;;;;;19.81;80.75;101443.25;5035151;28;20041;-86
2022/05/20 00:47:43;;;;;;;9.05;3.58;;;;;;;19.80;80.92;101446.97;5035567;28;20060;-90
2022/05/20 00:50:17;;;;;;;14.30;5.32;;;;;;;19.87;80.63;101448.66;5035119;28;20472;-87
2022/05/20 00:52:47;;;;;;;12.27;4.80;;;;;;;19.85;82.16;101450.72;5034980;28;20075;-86
2022/05/20 00:55:17;;;;;;;15.55;6.97;;;;;;;19.73;83.16;101457.69;5017259;28;20069;-93
2022/05/20 00:57:49;;;;;;;11.93;7.35;;;;;;;19.62;84.19;101452.06;5016341;28;20108;-87
2022/05/20 01:00:24;;;;;;;21.35;7.72;;;;;;;19.48;84.09;101448.47;5017022;28;20067;-87
2022/05/20 01:02:56;;;;;;;17.83;8.27;;;;;;;19.43;84.86;101445.53;5034978;28;20033;-87
2022/05/20 01:05:34;;;;;;;15.18;7.68;;;;;;;19.45;84.56;101447.00;5017130;28;20045;-87
2022/05/20 01:08:00;;;;;;;13.40;8.50;;;;;;;19.26;84.17;101457.56;5034632;28;20033;-87
2022/05/20 01:10:26;;;;;;;16.88;8.50;;;;;;;19.20;82.82;101455.66;5034659;28;20038;-85
2022/05/20 01:12:53;;;;;;;14.77;8.57;;;;;;;19.18;82.00;101457.72;5034986;28;20034;-88
2022/05/20 01:15:19;;;;;;;16.17;7.82;;;;;;;19.01;79.82;101458.03;5043455;28;20055;-86
2022/05/20 01:17:47;;;;;;;15.23;7.40;;;;;;;18.98;79.06;101452.19;5025662;28;20025;-85
2022/05/20 01:20:19;;;;;;;21.30;8.25;;;;;;;18.95;79.01;101460.66;5042434;28;20103;-86
2022/05/20 01:22:53;;;;;;;11.88;7.70;;;;;;;18.84;79.08;101461.16;5040721;28;20113;-85
2022/05/20 01:25:20;;;;;;;20.80;8.27;;;;;;;18.87;78.57;101469.66;5038714;28;20041;-87
2022/05/20 01:27:46;;;;;;;19.65;8.30;;;;;;;18.88;76.99;101468.66;5038573;28;20033;-86
2022/05/20 01:30:14;;;;;;;13.55;7.75;;;;;;;18.88;76.26;101473.19;5047368;28;20554;-84
2022/05/20 01:32:40;;;;;;;17.60;7.57;;;;;;;18.68;76.64;101467.63;5034697;28;20477;-86
2022/05/20 01:35:11;;;;;;;17.45;6.68;;;;;;;18.62;75.56;101471.09;5034274;28;20041;-87
2022/05/20 01:37:37;;;;;;;17.08;6.82;;;;;;;18.61;74.73;101477.47;5034158;28;20124;-88
2022/05/20 01:40:03;;;;;;;15.68;6.43;;;;;;;18.59;74.02;101476.84;5016135;28;20179;-88
2022/05/20 01:42:35;;;;;;;13.52;6.88;;;;;;;18.52;74.79;101478.63;5034049;28;20415;-86
2022/05/20 01:45:28;;;;;;;15.63;6.03;;;;;;;18.59;74.78;101482.22;5033831;28;20076;-87
2022/05/20 01:48:05;;;;;;;16.02;6.20;;;;;;;18.70;72.88;101487.06;5022007;28;20045;-86
2022/05/20 01:50:36;;;;;;;20.67;6.07;;;;;;;18.55;73.25;101484.44;5017127;28;20037;-88
2022/05/20 01:53:39;;;;;;;19.23;6.10;;;;;;;18.53;72.09;101480.28;5033860;28;20038;-90
2022/05/20 01:56:17;;;;;;;;;;;;;;;18.48;72.52;101483.50;5034140;28;20046;-86
2022/05/20 01:59:14;;;;;;;12.75;5.32;;;;;;;18.52;71.88;101484.00;5034269;28;20342;-86
2022/05/20 02:01:47;;;;;;;8.77;5.25;;;;;;;18.58;71.64;101480.53;5016766;28;20037;-87
2022/05/20 02:04:39;;;;;;;9.35;5.55;;;;;;;18.64;71.73;101482.47;5034952;28;20033;-86
2022/05/20 02:07:08;;;;;;;12.47;5.87;;;;;;;18.59;72.59;101485.72;5033879;28;20509;-87
2022/05/20 02:09:44;;;;;;;13.70;5.15;;;;;;;18.64;73.00;101490.53;5033907;28;20029;-86
2022/05/20 02:12:15;;;;;;;12.75;5.90;;;;;;;18.72;72.34;101485.03;5033541;28;20041;-89
2022/05/20 02:14:46;;;;;;;15.13;5.75;;;;;;;18.63;72.63;101488.84;5034046;28;20456;-86
2022/05/20 02:17:35;;;;;;;11.88;5.25;;;;;;;18.54;73.37;101476.56;5033718;28;20140;-86
2022/05/20 02:20:11;;;;;;;12.52;5.97;;;;;;;18.72;71.99;101485.03;5033854;28;20500;-87
2022/05/20 02:22:48;;;;;;;12.63;5.85;;;;;;;18.29;73.55;101477.94;5033479;28;20091;-88
2022/05/20 02:25:20;;;;;;;16.25;5.75;;;;;;;18.31;74.46;101476.72;5033106;28;20041;-87
2022/05/20 02:27:53;;;;;;;14.47;6.17;;;;;;;18.27;74.50;101474.59;5033565;28;20435;-87
2022/05/20 02:30:25;;;;;;;15.68;6.63;;;;;;;18.18;75.27;101481.09;5033681;28;20112;-87
2022/05/20 02:33:08;;;;;;;23.35;6.65;;;;;;;17.98;77.05;101484.38;5033663;28;20543;-86
2022/05/20 02:35:34;;;;;;;20.40;6.97;;;;;;;17.87;77.43;101474.09;5033499;28;20563;-88
2022/05/20 02:38:19;;;;;;;16.38;6.80;;;;;;;17.92;77.25;101482.44;5033464;28;20025;-86
2022/05/20 02:40:47;;;;;;;15.93;6.60;;;;;;;17.73;78.47;101480.28;5015303;28;20045;-86
2022/05/20 02:43:13;;;;;;;17.58;7.13;;;;;;;17.80;78.31;101478.53;5033845;28;20038;-87
2022/05/20 02:45:41;;;;;;;13.18;6.63;;;;;;;17.91;77.68;101475.41;5033582;28;20035;-87
2022/05/20 02:48:07;;;;;;;15.73;6.85;;;;;;;18.10;76.02;101479.34;5033638;28;20033;-86
2022/05/20 02:50:33;;;;;;;12.57;5.95;;;;;;;18.26;75.17;101478.31;5033606;28;20064;-91
2022/05/20 02:52:59;;;;;;;13.02;6.35;;;;;;;18.29;73.50;101483.28;5034180;28;20033;-88
2022/05/20 02:55:25;;;;;;;11.27;5.68;;;;;;;18.18;74.05;101479.25;5034072;28;20021;-88
2022/05/20 02:57:50;;;;;;;10.48;5.65;;;;;;;18.31;73.31;101478.56;5016086;28;20034;-89
2022/05/20 03:05:45;;;;;;;15.32;6.20;;;;;;;18.59;71.43;101487.59;5034725;28;20034;-87
2022/05/20 03:08:11;;;;;;;16.75;5.80;;;;;;;18.48;71.92;101483.50;5038291;28;20431;-87
2022/05/20 03:10:36;;;;;;;14.65;5.88;;;;;;;18.25;73.55;101487.38;5033243;28;20028;-88
2022/05/20 03:17:09;;;;;;;18.20;5.68;;;;;;;18.08;74.42;101487.59;5057013;28;20052;-89
2022/05/20 03:19:36;;;;;;;14.55;6.32;;;;;;;18.10;74.89;101489.25;5058200;28;20092;-90
2022/05/20 03:25:49;;;;;;;19.35;6.25;;;;;;;17.84;75.37;101495.94;5061688;28;20056;-88
2022/05/20 03:28:15;;;;;;;16.40;6.07;;;;;;;18.02;74.61;101492.88;5060266;28;20049;-91
2022/05/20 03:30:41;;;;;;;10.68;6.65;;;;;;;17.89;75.00;101482.81;5027267;28;20072;-88
2022/05/20 03:33:06;;;;;;;13.95;6.50;;;;;;;17.78;75.54;101488.63;5024050;28;20105;-89
2022/05/20 03:35:32;;;;;;;15.55;6.20;;;;;;;17.88;75.73;101483.81;5020085;28;20535;-90
2022/05/20 03:37:57;;;;;;;12.18;6.35;;;;;;;17.79;76.95;101490.31;5019965;28;20033;-88
2022/05/20 03:40:23;;;;;;;17.80;6.13;;;;;;;17.79;77.20;101490.31;5037491;28;20530;-87
2022/05/20 03:42:48;;;;;;;11.00;6.40;;;;;;;18.02;76.14;101488.34;5036712;28;20072;-89
2022/05/20 03:45:14;;;;;;;21.45;6.95;;;;;;;18.01;76.46;101486.66;5036748;28;20034;-87
2022/05/20 03:47:39;;;;;;;13.07;7.20;;;;;;;17.96;77.34;101494.44;5036804;28;20476;-88
2022/05/20 03:50:05;;;;;;;14.18;6.95;;;;;;;17.98;77.36;101487.03;5038006;28;20500;-86
2022/05/20 03:52:31;;;;;;;16.15;6.82;;;;;;;18.05;77.00;101479.91;5039047;28;20025;-86
2022/05/20 03:54:56;;;;;;;17.20;6.90;;;;;;;17.95;77.54;101484.75;5039328;28;20033;-87
2022/05/20 03:57:24;;;;;;;14.75;7.18;;;;;;;17.84;78.93;101485.19;5043003;28;20101;-86
2022/05/20 03:59:50;;;;;;;16.25;6.85;;;;;;;17.76;79.44;101487.16;5054588;28;20103;-87
2022/05/20 04:02:15;;;;;;;19.20;7.00;;;;;;;17.84;79.56;101482.53;5036848;28;20037;-86
2022/05/20 04:04:44;;;;;;;18.30;7.70;;;;;;;18.07;78.90;101485.09;5051461;28;20033;-85
2022/05/20 04:07:13;;;;;;;10.07;6.47;;;;;;;18.11;78.75;101482.84;5048725;28;20034;-83
2022/05/20 04:09:39;;;;;;;12.88;6.50;;;;;;;18.04;79.83;101488.97;5051670;28;20041;-87
2022/05/20 04:12:07;;;;;;;15.77;6.63;;;;;;;17.98;79.76;101489.72;5037337;28;20079;-85
2022/05/20 04:14:34;;;;;;;14.70;6.85;;;;;;;17.89;80.44;101487.34;5029127;28;20045;-86
2022/05/20 04:17:00;;;;;;;14.60;7.10;;;;;;;17.89;81.02;101493.53;5021648;28;20026;-85
2022/05/20 04:19:28;;;;;;;14.70;7.65;;;;;;;17.87;82.84;101490.19;5018645;28;20507;-82
2022/05/20 04:21:57;;;;;;;14.60;7.47;;;;;;;17.99;81.81;101499.44;5026353;28;20057;-86
2022/05/20 04:24:23;;;;;;;22.63;7.80;;;;;;;18.04;82.43;101498.88;5027914;28;20053;-84
2022/05/20 04:26:48;;;;;;;17.42;7.40;;;;;;;18.23;81.76;101492.09;5027249;28;20029;-84
2022/05/20 04:29:15;;;;;;;18.63;6.80;;;;;;;17.92;84.36;101493.16;5006785;28;20469;-85
2022/05/20 04:31:44;;;;;;;19.60;8.30;;;;;;;17.96;84.54;101497.13;5016942;28;20041;-83
2022/05/20 04:34:10;;;;;;;13.13;7.82;;;;;;;18.10;84.58;101497.31;5016058;28;20080;-83
2022/05/20 04:36:36;;;;;;;17.70;6.60;;;;;;;18.27;83.23;101491.53;5015649;28;20068;-84
2022/05/20 04:39:02;;;;;;;14.73;7.25;;;;;;;18.25;83.02;101503.47;5016228;28;20029;-86
2022/05/20 04:46:59;;;;;;;19.13;8.18;;;;;;;17.72;88.64;101507.31;5016721;28;20164;-88
2022/05/20 04:49:29;;;;;;;18.73;7.68;;;;;;;17.69;88.97;101503.16;5015267;28;20029;-87
2022/05/20 04:51:56;;;;;;;16.52;8.43;;;;;;;17.79;88.23;101506.41;5016081;28;20049;-88
2022/05/20 05:00:56;;;;;;;21.88;9.05;;;;;;;18.07;87.03;101510.06;5037669;28;20029;-82
2022/05/20 05:03:25;;;;;;;17.65;7.78;;;;;;;18.14;87.39;101512.00;5035853;28;20040;-81
2022/05/20 05:05:56;;;;;;;18.55;8.63;;;;;;;18.20;86.43;101511.25;5016378;28;20050;-80
2022/05/20 05:08:25;;;;;;;27.70;7.82;;;;;;;18.25;86.28;101514.22;5011767;28;20033;-83
2022/05/20 05:11:10;;;;;;;17.55;8.13;;;;;;;18.33;86.94;101511.41;5011674;28;20033;-82
2022/05/20 05:13:54;;;;;;;17.70;7.63;;;;;;;18.37;86.62;101510.00;5031623;28;20069;-85
2022/05/20 05:16:27;;;;;;;18.88;7.60;;;;;;;18.61;85.57;101512.38;5014484;28;20060;-83
2022/05/20 05:18:53;;;;;;;16.90;8.05;;;;;;;18.65;84.49;101524.41;5008918;28;20110;-83
2022/05/20 05:26:45;;;;;;;12.70;7.75;;;;;;;18.93;83.13;101528.00;5113300;23;20061;-86
2022/05/20 05:29:17;;;;;;;27.73;7.70;;;;;;;19.16;81.07;101524.28;5062603;28;20032;-84
2022/05/20 05:31:46;;;;;;;15.43;6.80;;;;;;;19.66;79.72;101526.75;5079368;28;20036;-85
2022/05/20 05:37:21;;;;;;;11.93;6.93;;;;;;;20.20;77.31;101539.47;4957829;28;20022;-86
2022/05/20 05:39:47;;;;;;;20.33;7.47;;;;;;;20.39;76.56;101534.22;4974480;28;20026;-87
2022/05/20 05:42:36;;;;;;;14.68;7.07;;;;;;;20.69;75.16;101540.09;4992502;28;20126;-86
2022/05/20 05:45:03;;;;;;;15.88;6.72;;;;;;;21.17;72.92;101546.22;4987023;28;20082;-88
2022/05/20 05:47:29;;;;;;;15.65;6.88;;;;;;;21.44;71.23;101547.06;5063750;28;20132;-86
2022/05/20 05:50:12;;;;;;;18.20;7.15;;;;;;;21.80;70.86;101549.31;5074941;28;20021;-83
2022/05/20 05:52:44;;;;;;;20.45;6.80;;;;;;;21.82;70.32;101548.03;5075382;28;20038;-84
2022/05/20 05:55:09;;;;;;;20.75;7.00;;;;;;;22.01;69.40;101541.78;5067119;28;20040;-87
2022/05/20 05:57:35;;;;;;;15.23;6.90;;;;;;;22.31;68.74;101543.97;5067943;28;20140;-85
2022/05/20 06:00:05;;;;;;;22.15;6.55;;;;;;;22.62;67.27;101544.03;5051704;28;20041;-90
2022/05/20 06:02:37;;;;;;;13.70;6.38;;;;;;;22.90;65.03;101547.22;5067035;28;20052;-88
2022/05/20 06:05:03;;;;;;;15.85;6.35;;;;;;;23.34;62.50;101548.13;5053746;28;20037;-87
2022/05/20 06:10:19;;;;;;;13.73;6.60;;;;;;;23.96;59.18;101547.16;4153257;26;20046;-85
2022/05/20 06:12:45;;;;;;;20.52;6.68;;;;;;;24.26;58.14;101552.69;5062039;23;20042;-88
2022/05/20 06:15:17;;;;;;;21.05;6.88;;;;;;;24.53;57.14;101559.41;5037878;28;20020;-86
2022/05/20 06:24:01;;;;;;;11.98;6.50;;;;;;;25.42;53.68;101555.81;5072092;28;20067;-91
2022/05/20 06:26:38;;;;;;;15.02;6.00;;;;;;;26.48;51.41;101555.50;5056528;28;20045;-88
2022/05/20 06:29:48;;;;;;;14.35;5.88;;;;;;;26.51;50.97;101564.00;5053628;28;20035;-89
2022/05/20 06:32:19;;;;;;;9.30;5.72;;;;;;;25.91;52.58;101568.94;5057377;28;20041;-88
2022/05/20 06:41:12;;;;;;;10.38;5.43;;;;;;;26.88;48.35;101569.09;5070483;28;20051;-88
2022/05/20 06:44:28;;;;;;;13.30;6.00;;;;;;;26.55;48.16;101570.59;5057522;28;20037;-87
2022/05/20 06:47:20;;;;;;;17.33;6.15;;;;;;;26.27;49.30;101567.84;5061638;28;20064;-91
2022/05/20 06:50:11;;;;;;;16.35;5.47;;;;;;;27.73;45.66;101569.72;5069192;28;20111;-91
2022/05/20 06:58:02;;;;;;;18.90;6.20;;;;;;;28.27;43.93;101569.94;4889160;26;20021;-90
2022/05/20 07:01:03;;;;;;;11.27;5.32;;;;;;;28.85;42.81;101564.59;5001310;28;20050;-87
2022/05/20 07:06:16;;;;;;;11.45;4.95;;;;;;;28.30;44.44;101570.25;3825564;26;20042;-84
2022/05/20 07:08:54;;;;;;;10.57;5.25;;;;;;;28.78;42.79;101568.63;5004088;28;20061;-85
2022/05/20 07:25:47;;;;;;;10.38;5.32;;;;;;;28.86;42.90;101565.44;3228202;26;20028;-87
2022/05/20 07:28:12;;;;;;;14.05;4.40;;;;;;;29.85;40.99;101563.00;5076287;28;20033;-86
2022/05/20 07:31:23;;;;;;;13.05;5.03;;;;;;;29.96;41.39;101567.44;5073898;28;20040;-85
2022/05/20 07:33:54;;;;;;;9.57;5.55;;;;;;;29.26;42.77;101562.28;5074959;28;20033;-84
2022/05/20 07:37:01;;;;;;;15.63;5.50;;;;;;;28.46;43.91;101558.44;5056796;28;20045;-86
2022/05/20 07:39:28;;;;;;;16.55;5.80;;;;;;;28.95;43.01;101559.25;5075202;28;20283;-86
2022/05/20 07:42:03;;;;;;;12.18;5.55;;;;;;;29.53;41.72;101552.91;5035899;28;20077;-86
2022/05/20 07:44:29;;;;;;;9.95;4.90;;;;;;;29.69;41.98;101556.59;5150817;22;20056;-86
2022/05/20 07:46:57;;;;;;;15.40;5.50;;;;;;;29.11;43.31;101555.56;5033329;28;20089;-85
2022/05/20 07:49:32;;;;;;;14.60;5.50;;;;;;;29.97;41.40;101558.97;5026478;28;20112;-85
2022/05/20 07:52:07;;;;;;;;;;;;;;;30.12;41.21;101569.16;5051670;28;20056;-85
2022/05/20 07:54:45;;;;;;;15.98;5.18;;;;;;;29.64;41.88;101562.00;5051076;28;19924;-85
2022/05/20 07:57:16;;;;;;;10.68;5.05;;;;;;;30.49;40.19;101558.13;5149851;23;20049;-87
2022/05/20 07:59:51;;;;;;;10.88;6.22;;;;;;;29.79;41.51;101559.38;5065410;28;20056;-85
2022/05/20 08:02:22;;;;;;;12.77;5.93;;;;;;;30.38;40.65;101556.41;5069343;22;20049;-87
2022/05/20 08:05:11;;;;;;;11.77;5.35;;;;;;;30.87;39.26;101565.03;5051854;28;20036;-85
2022/05/20 08:07:41;;;;;;;17.80;5.38;;;;;;;30.90;38.99;101562.56;5032376;28;20043;-87
2022/05/20 08:10:43;;;;;;;9.95;5.32;;;;;;;29.93;41.64;101555.09;5049031;28;20447;-85
2022/05/20 08:13:26;;;;;;;14.30;5.60;;;;;;;29.82;41.63;101547.09;5053463;28;20041;-90
2022/05/20 08:16:00;;;;;;;11.98;5.63;;;;;;;29.53;42.57;101552.13;5055967;28;20032;-89
2022/05/20 08:18:26;;;;;;;24.08;5.60;;;;;;;29.31;42.79;101552.22;5041442;28;20092;-88
2022/05/20 08:20:56;;;;;;;15.00;5.60;;;;;;;29.88;42.54;101552.34;5061162;28;20101;-87
2022/05/20 08:23:22;;;;;;;14.93;6.00;;;;;;;30.21;40.96;101545.69;5104623;23;20063;-89
2022/05/20 08:25:50;;;;;;;13.95;5.50;;;;;;;30.22;40.97;101545.44;5071023;28;20033;-87
2022/05/20 08:28:19;;;;;;;9.15;4.47;;;;;;;30.85;40.32;101540.69;5069042;22;20084;-89
2022/05/20 08:31:09;;;;;;;12.25;5.13;;;;;;;31.52;37.79;101531.41;5030961;28;20034;-85
2022/05/20 08:34:15;;;;;;;9.70;4.80;;;;;;;31.31;38.46;101533.31;5052808;28;20048;-87
2022/05/20 08:39:44;;;;;;;;;;;;;;;30.44;40.60;101538.94;1116422;26;21161;-88
2022/05/20 08:42:25;;;;;;;17.63;6.03;;;;;;;30.38;39.92;101534.53;5029730;28;19920;-87
2022/05/20 08:44:52;;;;;;;12.15;5.18;;;;;;;30.81;39.06;101538.75;5050579;28;20499;-86
2022/05/20 08:47:22;;;;;;;26.55;8.20;;;;;;;30.77;39.74;101533.00;5034331;28;20033;-85
2022/05/20 08:50:06;;;;;;;11.07;5.72;;;;;;;30.50;40.17;101535.94;5072751;28;20060;-89
2022/05/20 08:52:32;;;;;;;11.85;5.25;;;;;;;30.59;40.39;101537.06;5068303;28;20096;-88
2022/05/20 08:54:59;;;;;;;7.47;5.32;;;;;;;30.38;40.47;101534.53;5055331;23;20021;-86
2022/05/20 08:57:57;;;;;;;9.90;5.35;;;;;;;30.29;40.94;101538.88;5048019;28;20065;-86
2022/05/20 09:00:29;;;;;;;15.93;5.47;;;;;;;30.85;39.48;101540.69;5046988;28;20057;-87
2022/05/20 09:02:58;;;;;;;13.25;5.45;;;;;;;31.11;38.49;101531.41;5042434;28;20049;-85
2022/05/20 09:05:34;;;;;;;16.77;5.97;;;;;;;31.01;39.03;101534.16;5029026;28;20026;-88
2022/05/20 09:08:45;;;;;;;8.75;5.13;;;;;;;30.67;40.03;101522.84;4995089;28;20109;-91
2022/05/20 09:11:28;;;;;;;12.18;5.13;;;;;;;31.17;38.29;101516.63;5008333;28;20013;-89
2022/05/20 09:17:22;;;;;;;12.45;5.90;;;;;;;31.20;38.35;101521.53;5025814;28;20493;-88
2022/05/20 09:20:14;;;;;;;15.77;5.05;;;;;;;32.62;36.44;101523.84;4927620;29;20056;-88
2022/05/20 09:23:03;;;;;;;11.85;6.22;;;;;;;31.26;37.68;101506.75;4932583;29;20052;-88
2022/05/20 09:25:36;;;;;;;10.27;5.63;;;;;;;31.02;38.88;101518.53;4946069;29;20086;-87
2022/05/20 09:28:33;;;;;;;11.57;5.30;;;;;;;31.16;38.69;101509.50;4931591;29;20050;-85
2022/05/20 09:31:30;;;;;;;12.45;5.90;;;;;;;31.65;37.19;101512.44;4950461;29;20055;-87
2022/05/20 09:34:20;;;;;;;13.70;5.43;;;;;;;32.33;36.50;101511.94;4944180;29;20055;-86
2022/05/20 09:36:56;;;;;;;12.70;5.60;;;;;;;32.30;36.56;101512.50;4942096;29;20059;-87
2022/05/20 09:39:26;;;;;;;20.13;6.55;;;;;;;32.16;36.67;101515.03;4941979;29;20043;-86
2022/05/20 09:41:57;;;;;;;17.85;6.82;;;;;;;31.90;37.18;101506.06;4925578;29;20047;-89
2022/05/20 09:44:32;;;;;;;13.37;6.17;;;;;;;31.87;37.70;101506.63;4921942;29;20040;-85
2022/05/20 09:47:23;;;;;;;13.60;6.20;;;;;;;31.47;37.90;101499.31;4921815;29;20640;-90
2022/05/20 09:49:52;;;;;;;18.33;5.97;;;;;;;31.86;37.13;101491.28;4937706;29;20512;-91
2022/05/20 09:52:40;;;;;;;19.75;6.03;;;;;;;32.03;37.09;101502.72;4920165;29;20062;-86
2022/05/20 09:55:24;;;;;;;14.63;6.78;;;;;;;31.98;37.28;101494.53;4921949;28;20048;-88
2022/05/20 09:57:50;;;;;;;17.83;6.18;;;;;;;31.67;37.50;101490.25;5014729;28;20026;-85
2022/05/20 10:00:34;;;;;;;18.20;5.78;;;;;;;31.97;37.06;101489.31;5014852;28;20037;-86
2022/05/20 10:03:12;;;;;;;19.98;5.68;;;;;;;32.05;37.17;101484.09;5016078;28;20061;-87
2022/05/20 10:05:47;;;;;;;19.67;5.68;;;;;;;31.78;38.21;101483.66;5016059;28;20046;-90
2022/05/20 10:08:23;;;;;;;11.48;6.22;;;;;;;31.61;37.90;101480.41;5027128;28;20396;-84
2022/05/20 10:11:01;;;;;;;17.08;5.85;;;;;;;31.72;37.99;101471.84;5037110;28;20055;-86
2022/05/20 10:13:36;;;;;;;13.20;5.70;;;;;;;31.90;37.56;101475.91;5036665;28;20097;-87
2022/05/20 10:16:28;;;;;;;18.10;5.80;;;;;;;32.14;36.54;101465.97;5040754;28;20465;-85
2022/05/20 10:19:12;;;;;;;11.70;5.28;;;;;;;32.93;35.25;101461.28;5037854;28;20452;-85
2022/05/20 10:22:04;;;;;;;12.27;4.78;;;;;;;33.84;33.94;101472.19;5038374;28;20033;-85
2022/05/20 10:24:48;;;;;;;10.70;4.68;;;;;;;33.94;33.19;101465.75;5035406;28;20119;-86
2022/05/20 10:27:42;;;;;;;7.85;4.30;;;;;;;33.79;33.36;101461.25;5036159;28;20088;-87
2022/05/20 10:33:16;;;;;;;12.10;4.95;;;;;;;33.29;33.36;101448.88;5041989;28;20071;-85
2022/05/20 10:35:58;;;;;;;10.82;5.00;;;;;;;33.07;34.08;101443.03;5037635;28;20025;-84
2022/05/20 10:38:39;;;;;;;13.52;5.22;;;;;;;33.21;33.95;101439.34;5043368;28;20053;-88
2022/05/20 10:41:21;;;;;;;13.80;5.30;;;;;;;33.13;33.80;101433.66;5041709;28;20377;-86
2022/05/20 10:50:31;;;;;;;13.30;4.53;;;;;;;33.04;34.38;101419.72;5047673;28;20018;-87
2022/05/20 10:53:54;;;;;;;5.80;3.63;;;;;;;33.52;33.75;101426.06;5045594;28;20519;-86
2022/05/20 10:56:36;;;;;;;13.10;3.95;;;;;;;34.34;32.51;101423.13;5042857;28;20045;-85
2022/05/20 10:59:16;;;;;;;9.52;4.75;;;;;;;33.66;33.35;101423.47;5040637;28;20048;-84
2022/05/20 11:02:10;;;;;;;14.45;3.85;;;;;;;33.98;33.07;101420.84;5041855;28;20140;-88
2022/05/20 11:04:58;;;;;;;15.57;4.25;;;;;;;34.14;32.38;101421.47;5037350;28;20041;-88
2022/05/20 11:07:42;;;;;;;10.45;3.50;;;;;;;35.06;31.74;101414.19;5009407;28;20496;-91
2022/05/20 11:10:32;;;;;;;7.70;3.40;;;;;;;34.95;31.06;101415.47;5038296;28;20061;-89
2022/05/20 11:13:52;;;;;;;9.77;3.83;;;;;;;34.72;31.04;101405.41;5037787;28;20041;-88
2022/05/20 11:17:12;;;;;;;12.02;3.97;;;;;;;34.48;32.07;101399.19;5039347;28;20041;-89
2022/05/20 11:20:15;;;;;;;10.48;3.50;;;;;;;33.81;33.22;101401.25;5030197;28;20036;-90
2022/05/20 11:23:06;;;;;;;11.77;3.20;;;;;;;33.52;32.96;101386.78;5048619;28;20033;-90
2022/05/20 11:25:52;;;;;;;8.40;3.30;;;;;;;33.62;33.64;101386.66;5043523;28;20037;-91
2022/05/20 11:28:26;;;;;;;9.15;3.40;;;;;;;33.65;32.92;101391.56;5044436;28;20044;-93
2022/05/20 11:31:23;;;;;;;11.73;3.45;;;;;;;33.20;33.51;101380.00;5044592;28;20041;-91
2022/05/20 11:33:57;;;;;;;10.90;3.13;;;;;;;32.37;35.29;101378.56;5032296;28;20133;-91
2022/05/20 11:36:49;;;;;;;8.70;3.05;;;;;;;31.95;36.40;101377.16;5003815;28;20061;-91
2022/05/20 11:40:03;;;;;;;9.65;3.50;;;;;;;31.61;37.62;101373.50;5010907;28;20073;-91
2022/05/20 11:42:49;;;;;;;12.27;3.90;;;;;;;31.29;37.43;101367.59;5042170;28;20056;-89
2022/05/20 11:45:38;;;;;;;6.75;3.15;;;;;;;31.23;36.93;101370.34;5053652;28;20045;-89
2022/05/20 11:48:41;;;;;;;12.63;7.57;;;;;;;30.77;38.23;101346.88;5049101;28;20052;-90
2022/05/20 11:51:51;;;;;;;11.13;4.13;;;;;;;30.41;39.48;101353.44;5044433;28;20033;-89
2022/05/20 11:54:29;;;;;;;10.70;3.42;;;;;;;30.07;39.61;101343.00;5044609;28;20047;-89
2022/05/20 11:57:04;;;;;;;9.90;3.33;;;;;;;30.26;39.34;101341.38;5040437;28;20507;-89
2022/05/20 11:59:46;;;;;;;16.40;3.47;;;;;;;30.24;39.76;101343.56;5108894;23;20807;-89
2022/05/20 12:02:19;;;;;;;8.43;2.75;;;;;;;30.49;40.39;101339.25;4926113;29;20064;-89
2022/05/20 12:04:48;;;;;;;6.70;2.88;;;;;;;30.41;39.98;101332.41;4929203;29;20113;-87
2022/05/20 12:07:17;;;;;;;8.73;3.28;;;;;;;30.39;40.39;101328.28;4913894;29;20052;-86
2022/05/20 12:09:49;;;;;;;11.23;2.92;;;;;;;30.66;40.17;101326.06;4908517;29;20083;-88
2022/05/20 12:12:27;;;;;;;13.20;3.80;;;;;;;30.67;39.40;101324.97;5001279;28;20042;-84
2022/05/20 12:15:36;;;;;;;10.65;3.20;;;;;;;30.33;41.23;101312.97;5021756;28;20166;-88
2022/05/20 12:24:11;;;;;;;7.65;3.13;;;;;;;30.35;40.38;101313.50;5018851;28;20030;-85
2022/05/20 12:24:12;;;;;;;8.15;3.28;;;;;;;30.35;39.55;101306.09;5023217;28;20152;-88
2022/05/20 12:26:58;;;;;;;8.68;3.10;;;;;;;30.15;40.10;101295.16;4991381;28;20072;-89
2022/05/20 12:29:39;;;;;;;6.25;2.90;;;;;;;29.78;41.04;101295.38;5021814;28;20064;-90
2022/05/20 12:32:36;;;;;;;11.27;2.97;;;;;;;29.83;41.00;101292.66;5008688;28;20038;-90
2022/05/20 12:35:16;;;;;;;13.55;3.10;;;;;;;29.63;41.48;101287.94;5008167;28;20038;-86
2022/05/20 12:37:51;;;;;;;6.40;2.80;;;;;;;30.03;40.92;101281.75;5011382;28;20030;-88
2022/05/20 12:40:55;;;;;;;9.93;2.97;;;;;;;30.04;41.57;101280.66;5015577;28;20062;-90
2022/05/20 12:43:47;;;;;;;14.30;3.60;;;;;;;29.96;41.02;101275.72;5010997;28;20038;-89
2022/05/20 12:46:44;;;;;;;10.88;3.28;;;;;;;29.88;41.23;101279.00;5001621;28;20057;-85
2022/05/20 12:49:10;;;;;;;10.98;3.30;;;;;;;29.97;41.19;101271.91;4984703;28;20409;-88
2022/05/20 12:51:41;;;;;;;7.80;3.22;;;;;;;29.93;41.05;101273.53;5000313;28;20044;-88
2022/05/20 12:54:15;;;;;;;16.88;3.45;;;;;;;30.10;40.70;101274.09;5002388;28;20038;-88
2022/05/20 12:56:40;;;;;;;10.50;3.28;;;;;;;30.12;40.73;101274.66;5000479;28;20045;-86
2022/05/20 12:59:22;;;;;;;8.48;3.45;;;;;;;30.01;41.19;101262.06;5002380;28;20031;-86
2022/05/20 13:02:04;;;;;;;7.60;2.97;;;;;;;29.92;41.35;101262.91;4982562;28;20038;-86
2022/05/20 13:04:37;;;;;;;7.30;3.08;;;;;;;30.01;40.64;101256.59;4983653;28;20038;-88
2022/05/20 13:07:05;;;;;;;8.27;3.30;;;;;;;29.86;41.04;101253.88;4981363;28;20047;-90
2022/05/20 13:09:40;;;;;;;9.13;3.10;;;;;;;29.95;41.19;101246.78;4979849;28;20429;-85
2022/05/20 13:12:12;;;;;;;8.25;3.20;;;;;;;30.07;40.90;101255.50;4989377;28;20023;-91
2022/05/20 13:14:38;;;;;;;6.65;2.95;;;;;;;30.16;40.07;101242.91;4996902;28;20034;-84
2022/05/20 13:17:07;;;;;;;12.77;3.47;;;;;;;29.98;40.46;101240.75;4999907;28;20501;-85
2022/05/20 13:19:41;;;;;;;7.43;3.05;;;;;;;29.92;40.88;101241.84;4980176;28;20031;-85
2022/05/20 13:22:13;;;;;;;6.47;2.88;;;;;;;29.96;40.07;101232.00;4977241;28;20035;-86
2022/05/20 13:24:39;;;;;;;6.85;2.75;;;;;;;30.05;40.69;101230.38;4976361;28;20121;-86
2022/05/20 13:27:13;;;;;;;11.48;2.88;;;;;;;30.07;40.71;101236.38;4976554;28;20031;-88
2022/05/20 13:29:41;;;;;;;16.75;9.23;;;;;;;29.95;40.66;101227.63;4978992;28;20113;-84